sensor_id;sensor_type;location;lat;lon;timestamp;P1;durP1;ratioP1;P2;durP2;ratioP2
39680;SDS011;26327;42.550;23.120;2022-07-29T07:05:20;19.10;;;14.82;;
39680;SDS011;26327;42.550;23.120;2022-07-29T07:07:45;17.65;;;13.95;;
39680;SDS011;26327;42.550;23.120;2022-07-29T07:10:11;18.15;;;12.68;;
39680;SDS011;26327;42.550;23.120;2022-07-29T07:12:36;15.45;;;11.88;;
39680;SDS011;26327;42.550;23.120;2022-07-29T07:15:02;27.95;;;17.33;;
39680;SDS011;26327;42.550;23.120;2022-07-29T07:17:28;16.75;;;12.93;;
39680;SDS011;26327;42.550;23.120;2022-07-29T07:19:53;19.60;;;13.43;;
39680;SDS011;26327;42.550;23.120;2022-07-29T07:22:18;27.08;;;18.10;;
39680;SDS011;26327;42.550;23.120;2022-07-29T07:24:44;30.80;;;19.02;;
39680;SDS011;26327;42.550;23.120;2022-07-29T07:27:09;32.20;;;19.98;;
39680;SDS011;26327;42.550;23.120;2022-07-29T07:29:35;37.92;;;23.80;;
39680;SDS011;26327;42.550;23.120;2022-07-29T07:32:01;34.58;;;20.63;;
39680;SDS011;26327;42.550;23.120;2022-07-29T07:34:27;33.03;;;20.33;;
39680;SDS011;26327;42.550;23.120;2022-07-29T07:36:52;41.92;;;23.98;;
39680;SDS011;26327;42.550;23.120;2022-07-29T07:39:18;35.42;;;20.38;;
39680;SDS011;26327;42.550;23.120;2022-07-29T07:41:43;41.60;;;23.02;;
39680;SDS011;26327;42.550;23.120;2022-07-29T07:44:08;40.58;;;24.50;;
39680;SDS011;26327;42.550;23.120;2022-07-29T07:46:34;40.63;;;23.65;;
39680;SDS011;26327;42.550;23.120;2022-07-29T07:48:59;39.40;;;23.27;;
39680;SDS011;26327;42.550;23.120;2022-07-29T07:51:25;40.78;;;25.20;;
39680;SDS011;26327;42.550;23.120;2022-07-29T07:53:50;45.50;;;25.83;;
39680;SDS011;26327;42.550;23.120;2022-07-29T07:56:16;48.22;;;28.80;;
39680;SDS011;26327;42.550;23.120;2022-07-29T07:58:41;59.13;;;30.88;;
39680;SDS011;26327;42.550;23.120;2022-07-29T08:01:08;53.72;;;29.40;;
39680;SDS011;26327;42.550;23.120;2022-07-29T08:03:34;50.40;;;28.67;;
39680;SDS011;26327;42.550;23.120;2022-07-29T08:06:00;50.90;;;25.67;;
39680;SDS011;26327;42.550;23.120;2022-07-29T08:08:25;42.92;;;24.10;;
39680;SDS011;26327;42.550;23.120;2022-07-29T08:10:51;38.83;;;20.88;;
39680;SDS011;26327;42.550;23.120;2022-07-29T08:13:24;40.72;;;20.45;;
39680;SDS011;26327;42.550;23.120;2022-07-29T08:15:52;36.72;;;18.52;;
39680;SDS011;26327;42.550;23.120;2022-07-29T08:18:28;30.67;;;16.52;;
39680;SDS011;26327;42.550;23.120;2022-07-29T08:20:55;34.70;;;16.42;;
39680;SDS011;26327;42.550;23.120;2022-07-29T08:23:21;34.90;;;15.68;;
39680;SDS011;26327;42.550;23.120;2022-07-29T08:25:48;28.08;;;13.80;;
39680;SDS011;26327;42.550;23.120;2022-07-29T08:28:14;26.48;;;12.73;;
39680;SDS011;26327;42.550;23.120;2022-07-29T08:30:39;32.20;;;14.05;;
39680;SDS011;26327;42.550;23.120;2022-07-29T08:33:05;27.33;;;13.18;;
39680;SDS011;26327;42.550;23.120;2022-07-29T08:35:31;24.50;;;14.48;;
39680;SDS011;26327;42.550;23.120;2022-07-29T08:37:56;36.13;;;14.00;;
39680;SDS011;26327;42.550;23.120;2022-07-29T08:40:22;29.38;;;15.68;;
39680;SDS011;26327;42.550;23.120;2022-07-29T08:42:49;25.67;;;12.48;;
39680;SDS011;26327;42.550;23.120;2022-07-29T08:45:15;22.13;;;13.35;;
39680;SDS011;26327;42.550;23.120;2022-07-29T08:47:40;19.38;;;11.68;;
39680;SDS011;26327;42.550;23.120;2022-07-29T08:50:08;20.10;;;11.93;;
39680;SDS011;26327;42.550;23.120;2022-07-29T08:52:38;28.02;;;11.95;;
39680;SDS011;26327;42.550;23.120;2022-07-29T08:55:05;22.58;;;12.75;;
39680;SDS011;26327;42.550;23.120;2022-07-29T08:57:33;21.15;;;12.68;;
39680;SDS011;26327;42.550;23.120;2022-07-29T09:00:08;20.15;;;11.90;;
39680;SDS011;26327;42.550;23.120;2022-07-29T09:02:37;17.40;;;11.73;;
39680;SDS011;26327;42.550;23.120;2022-07-29T09:05:05;21.92;;;12.02;;
39680;SDS011;26327;42.550;23.120;2022-07-29T09:07:31;17.13;;;11.57;;
39680;SDS011;26327;42.550;23.120;2022-07-29T09:09:57;15.52;;;10.15;;
39680;SDS011;26327;42.550;23.120;2022-07-29T09:12:23;15.82;;;11.93;;
39680;SDS011;26327;42.550;23.120;2022-07-29T09:14:50;15.80;;;12.23;;
39680;SDS011;26327;42.550;23.120;2022-07-29T09:17:15;16.38;;;11.13;;
39680;SDS011;26327;42.550;23.120;2022-07-29T09:19:45;15.80;;;11.50;;
39680;SDS011;26327;42.550;23.120;2022-07-29T09:22:11;15.23;;;11.70;;
39680;SDS011;26327;42.550;23.120;2022-07-29T09:24:43;13.13;;;10.43;;
39680;SDS011;26327;42.550;23.120;2022-07-29T09:29:42;14.98;;;10.85;;
39680;SDS011;26327;42.550;23.120;2022-07-29T09:32:08;15.30;;;11.38;;
39680;SDS011;26327;42.550;23.120;2022-07-29T09:34:35;14.55;;;10.57;;
39680;SDS011;26327;42.550;23.120;2022-07-29T09:37:02;17.73;;;11.43;;
39680;SDS011;26327;42.550;23.120;2022-07-29T09:42:13;17.08;;;11.85;;
39680;SDS011;26327;42.550;23.120;2022-07-29T09:44:45;16.77;;;11.02;;
39680;SDS011;26327;42.550;23.120;2022-07-29T09:47:15;16.83;;;12.05;;
39680;SDS011;26327;42.550;23.120;2022-07-29T09:52:27;14.75;;;10.50;;
39680;SDS011;26327;42.550;23.120;2022-07-29T09:55:04;14.65;;;9.90;;
39680;SDS011;26327;42.550;23.120;2022-07-29T09:57:31;16.23;;;10.93;;
39680;SDS011;26327;42.550;23.120;2022-07-29T10:00:01;19.42;;;11.20;;
39680;SDS011;26327;42.550;23.120;2022-07-29T10:02:27;13.18;;;9.95;;
39680;SDS011;26327;42.550;23.120;2022-07-29T10:04:56;17.42;;;11.05;;
39680;SDS011;26327;42.550;23.120;2022-07-29T10:07:22;15.95;;;10.75;;
39680;SDS011;26327;42.550;23.120;2022-07-29T10:09:53;16.58;;;10.75;;
39680;SDS011;26327;42.550;23.120;2022-07-29T10:12:21;16.42;;;11.77;;
39680;SDS011;26327;42.550;23.120;2022-07-29T10:14:47;14.52;;;10.00;;
39680;SDS011;26327;42.550;23.120;2022-07-29T10:17:13;20.90;;;12.35;;
39680;SDS011;26327;42.550;23.120;2022-07-29T10:19:40;13.93;;;11.23;;
39680;SDS011;26327;42.550;23.120;2022-07-29T10:22:13;16.05;;;10.85;;
39680;SDS011;26327;42.550;23.120;2022-07-29T10:24:39;12.77;;;10.05;;
39680;SDS011;26327;42.550;23.120;2022-07-29T10:27:08;18.55;;;11.98;;
39680;SDS011;26327;42.550;23.120;2022-07-29T10:29:36;14.95;;;12.02;;
39680;SDS011;26327;42.550;23.120;2022-07-29T10:32:27;16.10;;;11.35;;
39680;SDS011;26327;42.550;23.120;2022-07-29T10:40:15;15.07;;;11.30;;
39680;SDS011;26327;42.550;23.120;2022-07-29T10:43:26;16.42;;;12.20;;
39680;SDS011;26327;42.550;23.120;2022-07-29T10:45:57;15.35;;;11.77;;
39680;SDS011;26327;42.550;23.120;2022-07-29T10:48:27;14.55;;;13.05;;
39680;SDS011;26327;42.550;23.120;2022-07-29T10:51:04;14.07;;;12.45;;
39680;SDS011;26327;42.550;23.120;2022-07-29T10:54:12;13.73;;;12.18;;
39680;SDS011;26327;42.550;23.120;2022-07-29T10:56:28;15.98;;;12.02;;
39680;SDS011;26327;42.550;23.120;2022-07-29T11:01:44;14.27;;;12.77;;
39680;SDS011;26327;42.550;23.120;2022-07-29T11:04:10;14.25;;;12.73;;
39680;SDS011;26327;42.550;23.120;2022-07-29T11:09:23;15.18;;;11.75;;
39680;SDS011;26327;42.550;23.120;2022-07-29T11:11:49;12.43;;;10.75;;
39680;SDS011;26327;42.550;23.120;2022-07-29T11:14:14;14.93;;;11.13;;
39680;SDS011;26327;42.550;23.120;2022-07-29T11:19:30;16.58;;;14.98;;
39680;SDS011;26327;42.550;23.120;2022-07-29T11:21:56;15.38;;;11.40;;
39680;SDS011;26327;42.550;23.120;2022-07-29T11:24:23;13.45;;;11.45;;
39680;SDS011;26327;42.550;23.120;2022-07-29T11:27:09;15.10;;;12.10;;
39680;SDS011;26327;42.550;23.120;2022-07-29T11:32:22;14.88;;;12.70;;
39680;SDS011;26327;42.550;23.120;2022-07-29T11:34:49;15.40;;;13.65;;
39680;SDS011;26327;42.550;23.120;2022-07-29T11:37:34;14.63;;;12.25;;
39680;SDS011;26327;42.550;23.120;2022-07-29T11:45:01;13.73;;;11.45;;
39680;SDS011;26327;42.550;23.120;2022-07-29T11:47:27;13.30;;;12.00;;
39680;SDS011;26327;42.550;23.120;2022-07-29T11:49:54;14.32;;;12.55;;
39680;SDS011;26327;42.550;23.120;2022-07-29T11:52:22;15.77;;;12.93;;
39680;SDS011;26327;42.550;23.120;2022-07-29T11:54:49;19.20;;;13.63;;
39680;SDS011;26327;42.550;23.120;2022-07-29T11:57:16;14.15;;;12.25;;
39680;SDS011;26327;42.550;23.120;2022-07-29T11:59:43;14.30;;;12.55;;
39680;SDS011;26327;42.550;23.120;2022-07-29T12:02:10;13.05;;;11.82;;
39680;SDS011;26327;42.550;23.120;2022-07-29T12:04:52;12.80;;;11.45;;
39680;SDS011;26327;42.550;23.120;2022-07-29T12:07:28;15.25;;;11.27;;
39680;SDS011;26327;42.550;23.120;2022-07-29T12:09:54;11.77;;;10.63;;
39680;SDS011;26327;42.550;23.120;2022-07-29T12:12:20;13.07;;;11.50;;
39680;SDS011;26327;42.550;23.120;2022-07-29T12:14:46;17.95;;;11.60;;
39680;SDS011;26327;42.550;23.120;2022-07-29T12:17:24;10.90;;;9.80;;
39680;SDS011;26327;42.550;23.120;2022-07-29T12:19:51;11.50;;;10.32;;
39680;SDS011;26327;42.550;23.120;2022-07-29T12:22:24;13.88;;;10.60;;
39680;SDS011;26327;42.550;23.120;2022-07-29T12:25:10;9.70;;;8.70;;
39680;SDS011;26327;42.550;23.120;2022-07-29T12:27:38;10.45;;;9.35;;
39680;SDS011;26327;42.550;23.120;2022-07-29T12:30:05;11.57;;;10.38;;
39680;SDS011;26327;42.550;23.120;2022-07-29T12:32:38;10.60;;;9.40;;
39680;SDS011;26327;42.550;23.120;2022-07-29T12:35:12;10.57;;;8.85;;
39680;SDS011;26327;42.550;23.120;2022-07-29T12:37:40;9.05;;;8.18;;
39680;SDS011;26327;42.550;23.120;2022-07-29T12:40:10;9.52;;;8.55;;
39680;SDS011;26327;42.550;23.120;2022-07-29T12:42:38;10.13;;;8.98;;
39680;SDS011;26327;42.550;23.120;2022-07-29T12:45:04;9.10;;;8.20;;
39680;SDS011;26327;42.550;23.120;2022-07-29T12:47:56;9.35;;;8.32;;
39680;SDS011;26327;42.550;23.120;2022-07-29T12:53:39;9.20;;;7.70;;
39680;SDS011;26327;42.550;23.120;2022-07-29T12:56:36;8.43;;;6.97;;
39680;SDS011;26327;42.550;23.120;2022-07-29T12:59:17;8.23;;;7.43;;
39680;SDS011;26327;42.550;23.120;2022-07-29T13:01:44;8.55;;;7.18;;
39680;SDS011;26327;42.550;23.120;2022-07-29T13:04:23;7.37;;;6.63;;
39680;SDS011;26327;42.550;23.120;2022-07-29T13:06:50;9.25;;;7.10;;
39680;SDS011;26327;42.550;23.120;2022-07-29T13:09:35;8.50;;;7.30;;
39680;SDS011;26327;42.550;23.120;2022-07-29T13:12:11;8.13;;;7.32;;
39680;SDS011;26327;42.550;23.120;2022-07-29T13:14:45;10.02;;;7.03;;
39680;SDS011;26327;42.550;23.120;2022-07-29T13:17:22;8.02;;;7.22;;
39680;SDS011;26327;42.550;23.120;2022-07-29T13:19:53;7.18;;;6.25;;
39680;SDS011;26327;42.550;23.120;2022-07-29T13:22:33;9.32;;;6.93;;
39680;SDS011;26327;42.550;23.120;2022-07-29T13:25:23;7.50;;;6.63;;
39680;SDS011;26327;42.550;23.120;2022-07-29T13:28:34;6.78;;;6.07;;
39680;SDS011;26327;42.550;23.120;2022-07-29T13:31:38;7.18;;;6.22;;
39680;SDS011;26327;42.550;23.120;2022-07-29T13:34:16;6.90;;;5.65;;
39680;SDS011;26327;42.550;23.120;2022-07-29T13:37:00;8.32;;;6.70;;
39680;SDS011;26327;42.550;23.120;2022-07-29T13:39:28;7.32;;;5.97;;
39680;SDS011;26327;42.550;23.120;2022-07-29T13:41:56;9.32;;;5.75;;
39680;SDS011;26327;42.550;23.120;2022-07-29T13:44:41;6.72;;;6.03;;
39680;SDS011;26327;42.550;23.120;2022-07-29T13:47:17;7.18;;;5.53;;
39680;SDS011;26327;42.550;23.120;2022-07-29T13:49:46;7.65;;;6.10;;
39680;SDS011;26327;42.550;23.120;2022-07-29T13:52:44;7.25;;;6.53;;
39680;SDS011;26327;42.550;23.120;2022-07-29T13:55:41;9.32;;;6.90;;
39680;SDS011;26327;42.550;23.120;2022-07-29T13:58:31;8.82;;;7.03;;
39680;SDS011;26327;42.550;23.120;2022-07-29T14:01:02;9.15;;;6.68;;
39680;SDS011;26327;42.550;23.120;2022-07-29T14:03:30;9.35;;;7.18;;
39680;SDS011;26327;42.550;23.120;2022-07-29T14:05:56;7.93;;;6.82;;
39680;SDS011;26327;42.550;23.120;2022-07-29T14:08:29;8.70;;;7.22;;
39680;SDS011;26327;42.550;23.120;2022-07-29T14:10:55;9.32;;;7.63;;
39680;SDS011;26327;42.550;23.120;2022-07-29T14:13:20;10.90;;;7.38;;
39680;SDS011;26327;42.550;23.120;2022-07-29T14:15:45;9.55;;;7.25;;
39680;SDS011;26327;42.550;23.120;2022-07-29T14:18:11;13.07;;;7.30;;
39680;SDS011;26327;42.550;23.120;2022-07-29T14:20:41;12.02;;;8.27;;
39680;SDS011;26327;42.550;23.120;2022-07-29T14:23:07;10.82;;;7.63;;
39680;SDS011;26327;42.550;23.120;2022-07-29T14:25:42;6.88;;;6.18;;
39680;SDS011;26327;42.550;23.120;2022-07-29T14:28:13;7.15;;;6.45;;
39680;SDS011;26327;42.550;23.120;2022-07-29T14:30:39;7.57;;;6.40;;
39680;SDS011;26327;42.550;23.120;2022-07-29T14:33:04;11.07;;;6.85;;
39680;SDS011;26327;42.550;23.120;2022-07-29T14:35:30;7.68;;;6.43;;
39680;SDS011;26327;42.550;23.120;2022-07-29T14:37:55;6.97;;;6.28;;
39680;SDS011;26327;42.550;23.120;2022-07-29T14:40:22;7.63;;;6.03;;
39680;SDS011;26327;42.550;23.120;2022-07-29T14:42:47;7.38;;;6.05;;
39680;SDS011;26327;42.550;23.120;2022-07-29T14:45:13;7.82;;;6.38;;
39680;SDS011;26327;42.550;23.120;2022-07-29T14:47:39;7.07;;;6.35;;
39680;SDS011;26327;42.550;23.120;2022-07-29T14:50:05;7.65;;;6.85;;
39680;SDS011;26327;42.550;23.120;2022-07-29T14:52:31;9.68;;;6.68;;
39680;SDS011;26327;42.550;23.120;2022-07-29T14:54:57;7.60;;;6.80;;
39680;SDS011;26327;42.550;23.120;2022-07-29T14:57:23;9.55;;;7.25;;
39680;SDS011;26327;42.550;23.120;2022-07-29T14:59:48;8.20;;;6.85;;
39680;SDS011;26327;42.550;23.120;2022-07-29T15:02:14;10.27;;;7.22;;
39680;SDS011;26327;42.550;23.120;2022-07-29T15:04:40;11.65;;;7.28;;
39680;SDS011;26327;42.550;23.120;2022-07-29T15:07:05;8.68;;;6.85;;
39680;SDS011;26327;42.550;23.120;2022-07-29T15:09:31;7.90;;;7.05;;
39680;SDS011;26327;42.550;23.120;2022-07-29T15:11:56;7.63;;;6.57;;
39680;SDS011;26327;42.550;23.120;2022-07-29T15:14:21;7.53;;;6.70;;
39680;SDS011;26327;42.550;23.120;2022-07-29T15:16:47;8.88;;;7.95;;
39680;SDS011;26327;42.550;23.120;2022-07-29T15:19:12;8.95;;;7.80;;
39680;SDS011;26327;42.550;23.120;2022-07-29T15:21:38;8.27;;;7.47;;
39680;SDS011;26327;42.550;23.120;2022-07-29T15:24:04;8.18;;;7.38;;
39680;SDS011;26327;42.550;23.120;2022-07-29T15:26:29;8.60;;;7.70;;
39680;SDS011;26327;42.550;23.120;2022-07-29T15:28:55;8.70;;;7.50;;
39680;SDS011;26327;42.550;23.120;2022-07-29T15:31:21;7.07;;;6.05;;
39680;SDS011;26327;42.550;23.120;2022-07-29T15:33:46;8.77;;;7.20;;
39680;SDS011;26327;42.550;23.120;2022-07-29T15:36:12;11.05;;;8.48;;
39680;SDS011;26327;42.550;23.120;2022-07-29T15:38:38;8.27;;;6.95;;
39680;SDS011;26327;42.550;23.120;2022-07-29T15:41:05;9.90;;;6.68;;
39680;SDS011;26327;42.550;23.120;2022-07-29T15:43:31;9.50;;;6.60;;
39680;SDS011;26327;42.550;23.120;2022-07-29T15:45:57;9.52;;;7.13;;
39680;SDS011;26327;42.550;23.120;2022-07-29T15:48:40;7.88;;;7.07;;
39680;SDS011;26327;42.550;23.120;2022-07-29T15:51:06;9.00;;;7.55;;
39680;SDS011;26327;42.550;23.120;2022-07-29T15:53:32;11.15;;;7.55;;
39680;SDS011;26327;42.550;23.120;2022-07-29T15:55:58;14.20;;;7.32;;
39680;SDS011;26327;42.550;23.120;2022-07-29T15:58:23;10.82;;;7.47;;
39680;SDS011;26327;42.550;23.120;2022-07-29T16:00:49;8.32;;;7.20;;
39680;SDS011;26327;42.550;23.120;2022-07-29T16:03:14;8.98;;;7.63;;
39680;SDS011;26327;42.550;23.120;2022-07-29T16:05:40;8.35;;;6.63;;
39680;SDS011;26327;42.550;23.120;2022-07-29T16:08:06;8.88;;;6.78;;
39680;SDS011;26327;42.550;23.120;2022-07-29T16:10:32;7.97;;;6.97;;
39680;SDS011;26327;42.550;23.120;2022-07-29T16:12:57;10.45;;;6.95;;
39680;SDS011;26327;42.550;23.120;2022-07-29T16:15:23;7.55;;;6.80;;
39680;SDS011;26327;42.550;23.120;2022-07-29T16:17:48;16.52;;;6.63;;
39680;SDS011;26327;42.550;23.120;2022-07-29T16:20:14;7.97;;;6.90;;
39680;SDS011;26327;42.550;23.120;2022-07-29T16:22:40;8.80;;;6.88;;
39680;SDS011;26327;42.550;23.120;2022-07-29T16:25:05;12.43;;;7.38;;
39680;SDS011;26327;42.550;23.120;2022-07-29T16:27:31;8.90;;;7.22;;
39680;SDS011;26327;42.550;23.120;2022-07-29T16:29:57;8.38;;;6.53;;
39680;SDS011;26327;42.550;23.120;2022-07-29T16:32:22;10.05;;;6.90;;
39680;SDS011;26327;42.550;23.120;2022-07-29T16:34:50;9.82;;;6.63;;
39680;SDS011;26327;42.550;23.120;2022-07-29T16:37:36;8.88;;;6.82;;
39680;SDS011;26327;42.550;23.120;2022-07-29T16:40:05;14.00;;;10.18;;
39680;SDS011;26327;42.550;23.120;2022-07-29T16:42:32;8.10;;;7.30;;
39680;SDS011;26327;42.550;23.120;2022-07-29T16:44:58;9.93;;;7.78;;
39680;SDS011;26327;42.550;23.120;2022-07-29T16:47:24;7.38;;;6.68;;
39680;SDS011;26327;42.550;23.120;2022-07-29T16:49:50;14.30;;;8.23;;
39680;SDS011;26327;42.550;23.120;2022-07-29T16:52:16;11.52;;;7.10;;
39680;SDS011;26327;42.550;23.120;2022-07-29T16:54:42;7.97;;;7.18;;
39680;SDS011;26327;42.550;23.120;2022-07-29T16:57:08;7.75;;;6.95;;
39680;SDS011;26327;42.550;23.120;2022-07-29T16:59:38;9.15;;;6.88;;
39680;SDS011;26327;42.550;23.120;2022-07-29T17:02:04;9.77;;;7.28;;
39680;SDS011;26327;42.550;23.120;2022-07-29T17:04:31;8.35;;;6.57;;
39680;SDS011;26327;42.550;23.120;2022-07-29T17:06:57;8.55;;;6.68;;
39680;SDS011;26327;42.550;23.120;2022-07-29T17:09:23;13.30;;;7.75;;
39680;SDS011;26327;42.550;23.120;2022-07-29T17:11:54;10.15;;;6.20;;
39680;SDS011;26327;42.550;23.120;2022-07-29T17:14:24;8.75;;;7.60;;
39680;SDS011;26327;42.550;23.120;2022-07-29T17:16:55;9.70;;;6.95;;
39680;SDS011;26327;42.550;23.120;2022-07-29T17:19:32;9.88;;;6.30;;
39680;SDS011;26327;42.550;23.120;2022-07-29T17:22:02;8.63;;;6.22;;
39680;SDS011;26327;42.550;23.120;2022-07-29T17:24:31;13.93;;;8.75;;
39680;SDS011;26327;42.550;23.120;2022-07-29T17:26:57;13.25;;;6.65;;
39680;SDS011;26327;42.550;23.120;2022-07-29T17:29:23;7.53;;;5.95;;
39680;SDS011;26327;42.550;23.120;2022-07-29T17:31:49;8.20;;;6.80;;
39680;SDS011;26327;42.550;23.120;2022-07-29T17:34:19;9.77;;;6.65;;
39680;SDS011;26327;42.550;23.120;2022-07-29T17:36:49;10.57;;;7.53;;
39680;SDS011;26327;42.550;23.120;2022-07-29T17:39:17;12.27;;;6.45;;
39680;SDS011;26327;42.550;23.120;2022-07-29T17:41:45;16.30;;;8.43;;
39680;SDS011;26327;42.550;23.120;2022-07-29T17:44:11;13.90;;;8.25;;
39680;SDS011;26327;42.550;23.120;2022-07-29T17:46:37;10.05;;;7.97;;
39680;SDS011;26327;42.550;23.120;2022-07-29T17:49:06;15.77;;;7.10;;
39680;SDS011;26327;42.550;23.120;2022-07-29T17:51:32;16.30;;;8.05;;
39680;SDS011;26327;42.550;23.120;2022-07-29T17:53:58;19.08;;;7.63;;
39680;SDS011;26327;42.550;23.120;2022-07-29T17:56:24;13.65;;;7.55;;
39680;SDS011;26327;42.550;23.120;2022-07-29T17:58:50;14.77;;;7.60;;
39680;SDS011;26327;42.550;23.120;2022-07-29T18:01:16;13.05;;;7.60;;
39680;SDS011;26327;42.550;23.120;2022-07-29T18:03:42;12.15;;;7.03;;
39680;SDS011;26327;42.550;23.120;2022-07-29T18:06:08;10.30;;;7.25;;
39680;SDS011;26327;42.550;23.120;2022-07-29T18:08:37;9.80;;;7.53;;
39680;SDS011;26327;42.550;23.120;2022-07-29T18:11:03;9.02;;;7.60;;
39680;SDS011;26327;42.550;23.120;2022-07-29T18:13:29;9.98;;;6.80;;
39680;SDS011;26327;42.550;23.120;2022-07-29T18:15:55;12.05;;;7.65;;
39680;SDS011;26327;42.550;23.120;2022-07-29T18:18:20;14.38;;;8.98;;
39680;SDS011;26327;42.550;23.120;2022-07-29T18:20:46;13.38;;;8.32;;
39680;SDS011;26327;42.550;23.120;2022-07-29T18:23:13;10.68;;;8.02;;
39680;SDS011;26327;42.550;23.120;2022-07-29T18:28:07;15.63;;;9.88;;
39680;SDS011;26327;42.550;23.120;2022-07-29T18:30:33;22.33;;;13.25;;
39680;SDS011;26327;42.550;23.120;2022-07-29T18:33:01;26.88;;;14.57;;
39680;SDS011;26327;42.550;23.120;2022-07-29T18:35:27;24.95;;;12.23;;
39680;SDS011;26327;42.550;23.120;2022-07-29T18:38:07;16.52;;;10.70;;
39680;SDS011;26327;42.550;23.120;2022-07-29T18:40:50;14.63;;;10.20;;
39680;SDS011;26327;42.550;23.120;2022-07-29T18:43:16;18.05;;;10.70;;
39680;SDS011;26327;42.550;23.120;2022-07-29T18:45:44;17.92;;;10.27;;
39680;SDS011;26327;42.550;23.120;2022-07-29T18:48:09;44.13;;;27.30;;
39680;SDS011;26327;42.550;23.120;2022-07-29T18:50:35;27.58;;;18.88;;
39680;SDS011;26327;42.550;23.120;2022-07-29T18:53:00;17.83;;;10.43;;
39680;SDS011;26327;42.550;23.120;2022-07-29T18:55:28;27.48;;;19.00;;
39680;SDS011;26327;42.550;23.120;2022-07-29T18:57:56;24.60;;;18.85;;
39680;SDS011;26327;42.550;23.120;2022-07-29T19:00:27;22.23;;;15.93;;
39680;SDS011;26327;42.550;23.120;2022-07-29T19:02:55;23.95;;;16.30;;
39680;SDS011;26327;42.550;23.120;2022-07-29T19:05:21;15.65;;;11.00;;
39680;SDS011;26327;42.550;23.120;2022-07-29T19:07:48;16.10;;;12.02;;
39680;SDS011;26327;42.550;23.120;2022-07-29T19:10:13;14.90;;;10.90;;
39680;SDS011;26327;42.550;23.120;2022-07-29T19:12:39;16.10;;;13.27;;
39680;SDS011;26327;42.550;23.120;2022-07-29T19:15:04;24.83;;;18.17;;
39680;SDS011;26327;42.550;23.120;2022-07-29T19:17:31;18.30;;;13.55;;
39680;SDS011;26327;42.550;23.120;2022-07-29T19:19:56;23.50;;;18.88;;
39680;SDS011;26327;42.550;23.120;2022-07-29T19:22:22;26.55;;;21.35;;
39680;SDS011;26327;42.550;23.120;2022-07-29T19:24:48;33.88;;;26.92;;
39680;SDS011;26327;42.550;23.120;2022-07-29T19:27:16;27.20;;;22.73;;
39680;SDS011;26327;42.550;23.120;2022-07-29T19:29:44;26.35;;;22.25;;
39680;SDS011;26327;42.550;23.120;2022-07-29T19:32:10;23.63;;;20.30;;
39680;SDS011;26327;42.550;23.120;2022-07-29T19:34:35;18.13;;;12.82;;
39680;SDS011;26327;42.550;23.120;2022-07-29T19:37:01;13.10;;;10.43;;
39680;SDS011;26327;42.550;23.120;2022-07-29T19:39:29;15.48;;;9.70;;
39680;SDS011;26327;42.550;23.120;2022-07-29T19:41:55;8.48;;;7.18;;
39680;SDS011;26327;42.550;23.120;2022-07-29T19:44:21;9.68;;;7.43;;
39680;SDS011;26327;42.550;23.120;2022-07-29T19:46:49;13.18;;;8.13;;
39680;SDS011;26327;42.550;23.120;2022-07-29T19:49:15;10.02;;;7.90;;
39680;SDS011;26327;42.550;23.120;2022-07-29T19:51:41;8.63;;;7.18;;
39680;SDS011;26327;42.550;23.120;2022-07-29T19:54:06;9.05;;;7.22;;
39680;SDS011;26327;42.550;23.120;2022-07-29T19:56:32;13.32;;;7.18;;
39680;SDS011;26327;42.550;23.120;2022-07-29T19:58:58;9.07;;;7.60;;
39680;SDS011;26327;42.550;23.120;2022-07-29T20:01:33;11.25;;;7.78;;
39680;SDS011;26327;42.550;23.120;2022-07-29T20:04:16;15.18;;;8.18;;
39680;SDS011;26327;42.550;23.120;2022-07-29T20:07:19;13.63;;;7.70;;
39680;SDS011;26327;42.550;23.120;2022-07-29T20:09:47;14.57;;;7.82;;
39680;SDS011;26327;42.550;23.120;2022-07-29T20:12:13;12.35;;;8.50;;
39680;SDS011;26327;42.550;23.120;2022-07-29T20:14:39;12.77;;;6.82;;
39680;SDS011;26327;42.550;23.120;2022-07-29T20:17:08;8.85;;;7.22;;
39680;SDS011;26327;42.550;23.120;2022-07-29T20:19:33;13.77;;;8.23;;
39680;SDS011;26327;42.550;23.120;2022-07-29T20:21:59;14.90;;;7.85;;
39680;SDS011;26327;42.550;23.120;2022-07-29T20:24:25;12.75;;;8.68;;
39680;SDS011;26327;42.550;23.120;2022-07-29T20:26:50;11.23;;;7.82;;
39680;SDS011;26327;42.550;23.120;2022-07-29T20:29:16;13.73;;;7.90;;
39680;SDS011;26327;42.550;23.120;2022-07-29T20:31:41;9.40;;;7.75;;
39680;SDS011;26327;42.550;23.120;2022-07-29T20:34:07;11.10;;;8.38;;
39680;SDS011;26327;42.550;23.120;2022-07-29T20:36:34;10.27;;;8.00;;
39680;SDS011;26327;42.550;23.120;2022-07-29T20:38:59;14.48;;;8.82;;
39680;SDS011;26327;42.550;23.120;2022-07-29T20:41:25;14.15;;;8.88;;
39680;SDS011;26327;42.550;23.120;2022-07-29T20:43:51;10.57;;;8.43;;
39680;SDS011;26327;42.550;23.120;2022-07-29T20:46:17;12.55;;;9.55;;
39680;SDS011;26327;42.550;23.120;2022-07-29T20:48:42;13.00;;;8.25;;
39680;SDS011;26327;42.550;23.120;2022-07-29T20:51:08;8.88;;;7.85;;
39680;SDS011;26327;42.550;23.120;2022-07-29T20:53:35;9.88;;;8.18;;
39680;SDS011;26327;42.550;23.120;2022-07-29T20:56:02;12.52;;;8.88;;
39680;SDS011;26327;42.550;23.120;2022-07-29T20:58:27;15.07;;;8.60;;
39680;SDS011;26327;42.550;23.120;2022-07-29T21:00:52;10.18;;;7.55;;
39680;SDS011;26327;42.550;23.120;2022-07-29T21:03:18;12.20;;;8.60;;
39680;SDS011;26327;42.550;23.120;2022-07-29T21:05:43;11.60;;;8.40;;
39680;SDS011;26327;42.550;23.120;2022-07-29T21:08:09;10.60;;;8.20;;
39680;SDS011;26327;42.550;23.120;2022-07-29T21:10:35;11.45;;;8.73;;
39680;SDS011;26327;42.550;23.120;2022-07-29T21:13:01;9.60;;;7.90;;
39680;SDS011;26327;42.550;23.120;2022-07-29T21:15:26;15.55;;;8.60;;
39680;SDS011;26327;42.550;23.120;2022-07-29T21:17:53;14.82;;;8.18;;
39680;SDS011;26327;42.550;23.120;2022-07-29T21:20:30;11.05;;;7.95;;
39680;SDS011;26327;42.550;23.120;2022-07-29T21:22:55;12.00;;;8.35;;
39680;SDS011;26327;42.550;23.120;2022-07-29T21:25:22;13.70;;;8.32;;
39680;SDS011;26327;42.550;23.120;2022-07-29T21:27:48;11.05;;;7.80;;
39680;SDS011;26327;42.550;23.120;2022-07-29T21:30:34;14.90;;;8.48;;
39680;SDS011;26327;42.550;23.120;2022-07-29T21:33:00;9.60;;;7.90;;
39680;SDS011;26327;42.550;23.120;2022-07-29T21:35:26;10.68;;;7.72;;
39680;SDS011;26327;42.550;23.120;2022-07-29T21:37:52;10.82;;;7.57;;
39680;SDS011;26327;42.550;23.120;2022-07-29T21:40:17;11.18;;;7.60;;
39680;SDS011;26327;42.550;23.120;2022-07-29T21:42:42;11.05;;;8.00;;
39680;SDS011;26327;42.550;23.120;2022-07-29T21:45:08;11.63;;;8.30;;
39680;SDS011;26327;42.550;23.120;2022-07-29T21:47:34;10.18;;;8.05;;
39680;SDS011;26327;42.550;23.120;2022-07-29T21:49:59;12.15;;;8.18;;
39680;SDS011;26327;42.550;23.120;2022-07-29T21:52:24;9.32;;;8.13;;
39680;SDS011;26327;42.550;23.120;2022-07-29T21:54:50;15.68;;;8.82;;
39680;SDS011;26327;42.550;23.120;2022-07-29T21:57:15;12.30;;;9.18;;
39680;SDS011;26327;42.550;23.120;2022-07-29T21:59:41;9.98;;;8.15;;
39680;SDS011;26327;42.550;23.120;2022-07-29T22:02:06;12.93;;;9.55;;
39680;SDS011;26327;42.550;23.120;2022-07-29T22:04:32;10.88;;;8.60;;
39680;SDS011;26327;42.550;23.120;2022-07-29T22:06:59;11.88;;;8.70;;
39680;SDS011;26327;42.550;23.120;2022-07-29T22:09:25;11.60;;;9.18;;